Time;durP1;ratioP1;P1;durP2;ratioP2;P2;SDS_P1;SDS_P2;PMS_P1;PMS_P2;Temp;Humidity;BMP_temperature;BMP_pressure;BME280_temperature;BME280_humidity;BME280_pressure;Samples;Min_cycle;Max_cycle;Signal;HPM_P1;HPM_P2
2023/03/29 00:01:15;;;;;;;6.47;1.70;;;8.90;1.00;;;;;;5070021;28;20387;-66
2023/03/29 00:03:43;;;;;;;5.22;1.50;;;7.60;1.00;;;;;;5069214;28;20522;-66
2023/03/29 00:06:13;;;;;;;7.20;1.65;;;7.60;1.00;;;;;;5069147;28;20427;-66
2023/03/29 00:08:39;;;;;;;5.60;1.70;;;7.60;1.00;;;;;;5070113;28;20880;-67
2023/03/29 00:11:04;;;;;;;7.00;1.40;;;9.00;1.00;;;;;;5069475;28;20380;-65
2023/03/29 00:13:30;;;;;;;7.35;2.00;;;7.50;1.00;;;;;;5069764;28;20442;-66
2023/03/29 00:15:56;;;;;;;5.50;1.70;;;7.50;19.30;;;;;;5069050;28;20380;-66
2023/03/29 00:18:22;;;;;;;6.07;1.57;;;7.40;99.90;;;;;;5069764;28;20470;-67
2023/03/29 00:20:58;;;;;;;6.45;1.65;;;7.50;99.90;;;;;;5067845;28;20899;-65
2023/03/29 00:23:24;;;;;;;5.70;1.40;;;7.50;1.00;;;;;;5069556;28;20384;-66
2023/03/29 00:25:51;;;;;;;6.20;1.60;;;7.60;99.90;;;;;;5068964;28;20398;-67
2023/03/29 00:28:17;;;;;;;5.40;1.40;;;7.60;99.90;;;;;;5069179;28;20407;-67
2023/03/29 00:30:42;;;;;;;5.63;1.53;;;7.60;25.50;;;;;;5069913;28;20857;-67
2023/03/29 00:33:08;;;;;;;5.60;1.40;;;7.60;48.60;;;;;;5069805;28;20775;-67
2023/03/29 00:35:36;;;;;;;6.03;1.60;;;7.50;99.90;;;;;;5069412;28;20925;-67
2023/03/29 00:38:02;;;;;;;5.70;1.50;;;7.60;99.90;;;;;;5069197;28;20426;-67
2023/03/29 00:40:27;;;;;;;6.28;1.63;;;7.60;99.90;;;;;;5069104;28;20414;-67
2023/03/29 00:42:56;;;;;;;7.33;1.73;;;7.60;62.60;;;;;;5070074;28;20383;-65
2023/03/29 00:45:25;;;;;;;5.90;1.30;;;7.60;99.90;;;;;;5073536;28;20419;-63
2023/03/29 00:47:56;;;;;;;7.27;1.80;;;7.60;99.90;;;;;;5073463;28;20736;-67
2023/03/29 00:50:29;;;;;;;6.85;1.80;;;7.60;99.90;;;;;;5073115;28;20938;-66
2023/03/29 00:53:18;;;;;;;5.90;1.40;;;7.50;99.90;;;;;;5071476;28;20402;-66
2023/03/29 00:56:00;;;;;;;5.97;1.60;;;8.80;1.00;;;;;;5073414;28;20379;-65
2023/03/29 00:58:33;;;;;;;6.60;2.20;;;7.20;99.90;;;;;;5072811;28;20403;-66
2023/03/29 01:01:09;;;;;;;6.35;1.65;;;7.30;89.30;;;;;;5072715;28;20391;-66
2023/03/29 01:03:45;;;;;;;5.60;1.50;;;7.20;1.00;;;;;;5073391;28;20406;-66
2023/03/29 01:06:13;;;;;;;5.60;1.50;;;8.20;1.00;;;;;;5072897;28;20524;-67
2023/03/29 01:08:43;;;;;;;6.85;1.90;;;8.30;1.00;;;;;;5073364;28;20372;-66
2023/03/29 01:11:17;;;;;;;6.00;1.52;;;7.10;1.00;;;;;;5072960;28;20398;-66
2023/03/29 01:14:01;;;;;;;6.10;1.97;;;7.10;1.00;;;;;;5073290;28;20849;-66
2023/03/29 01:16:29;;;;;;;7.40;2.17;;;7.20;1.00;;;;;;5072286;28;20394;-65
2023/03/29 01:18:57;;;;;;;6.70;1.70;;;7.30;99.90;;;;;;5072071;28;20372;-66
2023/03/29 01:21:26;;;;;;;6.72;2.20;;;7.30;99.90;;;;;;5072791;28;20487;-67
2023/03/29 01:24:10;;;;;;;7.10;2.25;;;7.30;99.90;;;;;;5072134;28;20490;-67
2023/03/29 01:27:04;;;;;;;6.83;2.23;;;8.30;99.90;;;;;;5072848;28;20384;-66
2023/03/29 01:29:47;;;;;;;7.30;2.43;;;7.20;1.00;;;;;;5042227;28;21034;-70
2023/03/29 01:32:22;;;;;;;7.25;2.42;;;7.30;1.00;;;;;;5073015;28;20398;-66
2023/03/29 01:34:55;;;;;;;10.65;2.35;;;8.90;1.00;;;;;;5071926;28;20383;-61
2023/03/29 01:37:33;;;;;;;6.97;2.30;;;7.20;99.90;;;;;;5071243;28;20450;-66
2023/03/29 01:39:59;;;;;;;6.00;2.00;;;8.10;99.90;;;;;;5072184;28;20412;-66
2023/03/29 01:42:53;;;;;;;8.77;2.60;;;7.10;1.00;;;;;;5072410;28;20714;-66
2023/03/29 01:45:30;;;;;;;8.45;2.70;;;7.00;26.50;;;;;;5072487;28;20407;-66
2023/03/29 01:48:27;;;;;;;7.85;2.83;;;6.90;1.00;;;;;;5071651;28;20388;-66
2023/03/29 01:50:59;;;;;;;8.88;2.90;;;6.80;1.00;;;;;;5071745;28;20495;-66
2023/03/29 01:53:43;;;;;;;8.05;2.90;;;6.70;95.70;;;;;;5072515;28;20736;-66
2023/03/29 01:56:32;;;;;;;7.15;2.95;;;6.70;1.00;;;;;;5070774;28;21136;-66
2023/03/29 01:59:03;;;;;;;7.18;2.65;;;6.70;1.00;;;;;;5071305;28;20901;-66
2023/03/29 02:01:36;;;;;;;7.10;2.30;;;6.70;1.00;;;;;;5072176;28;20445;-66
2023/03/29 02:04:04;;;;;;;8.52;2.65;;;6.70;1.00;;;;;;5071577;28;20404;-65
2023/03/29 02:06:32;;;;;;;6.50;2.30;;;6.70;99.90;;;;;;5072021;28;20869;-66
2023/03/29 02:08:59;;;;;;;7.45;2.25;;;6.70;99.90;;;;;;5071212;28;20395;-66
2023/03/29 02:11:28;;;;;;;7.17;2.53;;;8.50;1.00;;;;;;5071564;28;20481;-66
2023/03/29 02:13:54;;;;;;;9.10;2.40;;;6.70;99.90;;;;;;5071546;28;20485;-66
2023/03/29 02:16:20;;;;;;;8.43;2.95;;;6.60;1.00;;;;;;5071970;28;20387;-65
2023/03/29 02:18:48;;;;;;;7.90;2.67;;;6.60;99.90;;;;;;5071632;28;20386;-60
2023/03/29 02:21:53;;;;;;;6.35;2.13;;;6.90;37.70;;;;;;5071917;28;20436;-66
2023/03/29 02:24:23;;;;;;;7.82;2.20;;;6.60;99.90;;;;;;5059572;28;20442;-66
2023/03/29 02:26:49;;;;;;;6.82;2.35;;;6.70;99.40;;;;;;5071037;28;20412;-66
2023/03/29 02:29:15;;;;;;;7.20;2.20;;;6.70;1.00;;;;;;5071044;28;20880;-66
2023/03/29 02:31:45;;;;;;;6.75;2.20;;;8.10;54.10;;;;;;5071341;28;20395;-67
2023/03/29 02:34:21;;;;;;;6.27;1.93;;;8.30;1.00;;;;;;5071326;28;20455;-67
2023/03/29 02:36:51;;;;;;;7.35;2.15;;;6.70;1.00;;;;;;5071558;28;20498;-60
2023/03/29 02:39:17;;;;;;;6.82;2.30;;;7.50;87.40;;;;;;5071845;28;20388;-66
2023/03/29 02:41:47;;;;;;;9.70;2.22;;;6.80;1.00;;;;;;5071290;28;20462;-66
2023/03/29 02:44:17;;;;;;;8.10;2.10;;;6.70;1.00;;;;;;5070992;28;20777;-65
2023/03/29 02:46:44;;;;;;;9.95;2.38;;;6.60;1.00;;;;;;5071219;28;20457;-65
2023/03/29 02:49:10;;;;;;;7.50;2.30;;;6.50;1.00;;;;;;5059077;28;20908;-65
2023/03/29 02:51:37;;;;;;;7.68;2.10;;;6.60;57.70;;;;;;5051085;28;20401;-66
2023/03/29 02:54:09;;;;;;;6.30;2.20;;;7.90;99.90;;;;;;5050668;28;20390;-65
2023/03/29 02:56:48;;;;;;;9.00;1.70;;;6.50;1.00;;;;;;5051383;28;20439;-66
2023/03/29 02:59:14;;;;;;;7.60;2.10;;;6.40;1.00;;;;;;5051169;28;20425;-65
2023/03/29 03:01:42;;;;;;;6.47;1.85;;;6.40;1.00;;;;;;5051386;28;20415;-66
2023/03/29 03:04:09;;;;;;;6.95;2.03;;;8.30;1.00;;;;;;5050019;28;21017;-66
2023/03/29 03:06:36;;;;;;;7.30;2.17;;;6.40;1.00;;;;;;5049772;28;20377;-66
2023/03/29 03:09:03;;;;;;;6.45;2.10;;;6.50;1.00;;;;;;5050407;28;20373;-66
2023/03/29 03:11:29;;;;;;;7.85;2.30;;;6.80;1.00;;;;;;5051032;28;20420;-68
2023/03/29 03:13:55;;;;;;;8.18;2.25;;;6.40;1.00;;;;;;5050327;28;20377;-67
2023/03/29 03:16:21;;;;;;;6.40;1.70;;;6.40;1.00;;;;;;5050589;28;20380;-66
2023/03/29 03:18:49;;;;;;;6.40;2.10;;;7.50;99.90;;;;;;5049956;28;20468;-65
2023/03/29 03:21:14;;;;;;;6.03;2.28;;;8.20;99.90;;;;;;5051067;28;20381;-67
2023/03/29 03:23:40;;;;;;;6.80;2.20;;;6.40;99.90;;;;;;5050823;28;20495;-66
2023/03/29 03:26:07;;;;;;;5.60;1.90;;;6.40;1.00;;;;;;5049515;28;20508;-69
2023/03/29 03:28:33;;;;;;;7.28;2.30;;;6.50;1.00;;;;;;5050354;28;20413;-67
2023/03/29 03:30:58;;;;;;;6.00;2.03;;;6.50;99.90;;;;;;5049528;28;20395;-67
2023/03/29 03:33:25;;;;;;;7.37;2.20;;;6.60;99.90;;;;;;5050773;28;20468;-66
2023/03/29 03:35:51;;;;;;;7.90;2.00;;;6.70;99.90;;;;;;5049626;28;20874;-65
2023/03/29 03:38:17;;;;;;;7.33;2.50;;;7.00;99.90;;;;;;5050369;28;20394;-66
2023/03/29 03:40:43;;;;;;;7.75;2.70;;;6.90;99.90;;;;;;5050645;28;20872;-67
2023/03/29 03:43:08;;;;;;;8.13;2.60;;;7.00;1.00;;;;;;5049653;28;21169;-66
2023/03/29 03:45:34;;;;;;;6.15;1.92;;;7.30;99.90;;;;;;5049708;28;20405;-66
2023/03/29 03:48:00;;;;;;;6.97;2.20;;;7.00;1.00;;;;;;5050158;28;20416;-67
2023/03/29 03:50:25;;;;;;;6.67;2.17;;;7.10;1.00;;;;;;5050099;28;20385;-67
2023/03/29 03:52:51;;;;;;;7.43;2.47;;;7.20;99.90;;;;;;5049613;28;20509;-60
2023/03/29 03:55:17;;;;;;;5.50;1.70;;;8.50;28.50;;;;;;5049959;28;20931;-67
2023/03/29 03:57:42;;;;;;;6.27;2.07;;;7.30;1.00;;;;;;5050385;28;20393;-67
2023/03/29 04:00:18;;;;;;;6.88;1.80;;;8.80;1.00;;;;;;5049475;28;20381;-66
2023/03/29 04:02:47;;;;;;;7.05;2.20;;;7.40;1.00;;;;;;5050408;28;20442;-67
2023/03/29 04:05:13;;;;;;;6.22;1.80;;;7.40;1.00;;;;;;5049193;28;20901;-67
2023/03/29 04:07:40;;;;;;;7.93;2.20;;;7.50;99.90;;;;;;5049942;28;20716;-67
2023/03/29 04:10:07;;;;;;;6.07;1.98;;;7.60;1.00;;;;;;5049410;28;20385;-67
2023/03/29 04:12:34;;;;;;;7.50;2.05;;;7.60;99.90;;;;;;5049860;28;20388;-66
2023/03/29 04:15:02;;;;;;;7.55;2.80;;;7.50;99.90;;;;;;5049349;28;20494;-67
2023/03/29 04:17:28;;;;;;;7.70;2.10;;;7.50;99.90;;;;;;5049527;28;20397;-67
2023/03/29 04:19:53;;;;;;;6.47;2.00;;;7.50;99.90;;;;;;5048927;28;20397;-67
2023/03/29 04:22:19;;;;;;;6.73;1.80;;;8.40;1.00;;;;;;5031698;28;20382;-67
2023/03/29 04:24:45;;;;;;;6.20;1.80;;;7.60;1.00;;;;;;5049825;28;20758;-66
2023/03/29 04:27:10;;;;;;;5.80;1.50;;;7.70;1.00;;;;;;5048891;28;20528;-66
2023/03/29 04:29:36;;;;;;;6.30;1.70;;;7.70;1.00;;;;;;5049675;28;20559;-67
2023/03/29 04:32:01;;;;;;;5.82;1.83;;;7.80;99.90;;;;;;5049133;28;20377;-67
2023/03/29 04:34:28;;;;;;;6.17;1.70;;;7.80;99.90;;;;;;5049427;28;20413;-67
2023/03/29 04:36:54;;;;;;;8.70;2.22;;;7.90;99.90;;;;;;5049165;28;20381;-67
2023/03/29 04:39:20;;;;;;;6.30;1.70;;;8.30;99.90;;;;;;5049768;28;20380;-65
2023/03/29 04:41:46;;;;;;;6.50;1.93;;;8.00;99.90;;;;;;5049480;28;20869;-67
2023/03/29 04:44:13;;;;;;;7.40;1.80;;;8.00;99.90;;;;;;5048528;28;20434;-66
2023/03/29 04:46:39;;;;;;;7.80;2.10;;;8.00;99.90;;;;;;5049627;28;20392;-67
2023/03/29 04:49:05;;;;;;;7.30;1.85;;;8.10;99.90;;;;;;5048338;28;20381;-67
2023/03/29 04:51:32;;;;;;;6.10;1.90;;;8.10;99.90;;;;;;5049595;28;20780;-67
2023/03/29 04:53:58;;;;;;;7.00;2.20;;;9.50;99.90;;;;;;5049084;28;20386;-67
2023/03/29 04:56:23;;;;;;;8.50;2.60;;;8.30;99.90;;;;;;5049434;28;20738;-66
2023/03/29 04:58:49;;;;;;;6.03;2.22;;;8.30;99.90;;;;;;5048690;28;20419;-62
2023/03/29 05:01:16;;;;;;;8.25;2.30;;;7.70;99.90;;;;;;5049178;28;20385;-67
2023/03/29 05:03:42;;;;;;;10.75;2.88;;;8.40;99.90;;;;;;5049431;28;20412;-67
2023/03/29 05:06:10;;;;;;;12.23;4.63;;;8.30;99.90;;;;;;5048590;28;20385;-65
2023/03/29 05:08:38;;;;;;;13.40;4.30;;;8.30;99.90;;;;;;5049152;28;20370;-67
2023/03/29 05:11:06;;;;;;;10.80;3.50;;;8.50;99.90;;;;;;5048347;28;20490;-67
2023/03/29 05:13:32;;;;;;;11.97;3.93;;;8.50;71.20;;;;;;5049212;28;20380;-66
2023/03/29 05:15:59;;;;;;;10.82;3.30;;;8.50;58.30;;;;;;5048632;28;20810;-66
2023/03/29 05:18:25;;;;;;;6.90;2.50;;;8.50;49.60;;;;;;5053684;28;20839;-67
2023/03/29 05:20:52;;;;;;;9.60;3.10;;;8.50;57.30;;;;;;5068309;28;20462;-60
2023/03/29 05:23:19;;;;;;;8.40;3.13;;;8.50;59.20;;;;;;5069167;28;20388;-66
2023/03/29 05:25:46;;;;;;;10.25;3.40;;;8.60;60.90;;;;;;5068832;28;20388;-66
2023/03/29 05:28:12;;;;;;;9.75;2.85;;;8.60;90.20;;;;;;5068121;28;21306;-67
2023/03/29 05:30:39;;;;;;;6.60;2.22;;;8.70;59.60;;;;;;5071838;28;20387;-68
2023/03/29 05:33:05;;;;;;;7.50;2.50;;;8.80;12.70;;;;;;5072376;28;20411;-66
2023/03/29 05:35:30;;;;;;;8.53;2.50;;;8.80;1.00;;;;;;5072774;28;20412;-65
2023/03/29 05:37:57;;;;;;;8.75;2.50;;;8.80;1.00;;;;;;5072128;28;20375;-59
2023/03/29 05:40:25;;;;;;;7.05;2.17;;;8.70;1.00;;;;;;5072743;28;20791;-59
2023/03/29 05:42:51;;;;;;;6.60;2.10;;;8.80;1.00;;;;;;5071889;28;20479;-59
2023/03/29 05:45:18;;;;;;;9.57;2.80;;;8.80;1.00;;;;;;5072379;28;20468;-60
2023/03/29 05:47:43;;;;;;;6.53;1.93;;;8.90;1.00;;;;;;5073015;28;20384;-60
2023/03/29 05:50:10;;;;;;;7.50;2.20;;;8.90;1.00;;;;;;5071668;28;20402;-59
2023/03/29 05:52:36;;;;;;;9.85;2.13;;;9.00;1.00;;;;;;5072241;28;20419;-60
2023/03/29 05:55:05;;;;;;;7.47;2.00;;;9.10;1.00;;;;;;5071849;28;20394;-59
2023/03/29 05:57:31;;;;;;;8.00;2.50;;;9.10;1.00;;;;;;5072279;28;20582;-59
2023/03/29 05:59:56;;;;;;;6.97;2.20;;;9.20;1.00;;;;;;5072148;28;20868;-71
2023/03/29 06:02:24;;;;;;;6.60;2.10;;;9.20;1.00;;;;;;5072438;28;20384;-73
2023/03/29 06:04:50;;;;;;;10.40;2.15;;;9.70;6.20;;;;;;5049389;28;20511;-66
2023/03/29 06:07:16;;;;;;;9.73;2.43;;;9.10;38.40;;;;;;5052388;28;20431;-72
2023/03/29 06:09:43;;;;;;;7.90;3.08;;;10.70;74.00;;;;;;5052300;28;20421;-59
2023/03/29 06:12:09;;;;;;;13.30;3.67;;;9.00;65.50;;;;;;5051107;28;20473;-60
2023/03/29 06:14:36;;;;;;;11.13;4.00;;;9.10;23.90;;;;;;5051713;28;20754;-59
2023/03/29 06:17:02;;;;;;;11.75;4.18;;;9.10;10.30;;;;;;5051159;28;20446;-68
2023/03/29 06:19:28;;;;;;;12.20;4.10;;;9.10;1.00;;;;;;5051946;28;20404;-68
2023/03/29 06:21:53;;;;;;;9.10;4.00;;;9.10;1.00;;;;;;5050902;28;20447;-68
2023/03/29 06:24:19;;;;;;;9.90;4.10;;;9.20;1.00;;;;;;5051708;28;20413;-68
2023/03/29 06:26:45;;;;;;;9.73;4.10;;;9.20;1.00;;;;;;5051612;28;20385;-69
2023/03/29 06:29:11;;;;;;;9.30;3.33;;;9.30;1.00;;;;;;5033018;28;20404;-64
2023/03/29 06:31:37;;;;;;;11.97;3.80;;;9.40;1.00;;;;;;5033808;28;20392;-69
2023/03/29 06:34:03;;;;;;;8.35;3.30;;;9.60;1.00;;;;;;5050892;28;20530;-68
2023/03/29 06:36:29;;;;;;;9.30;3.05;;;9.50;1.00;;;;;;5033377;28;20428;-68
2023/03/29 06:38:55;;;;;;;9.52;3.50;;;9.40;1.00;;;;;;5050717;28;20499;-69
2023/03/29 06:41:20;;;;;;;10.63;3.00;;;9.40;1.00;;;;;;5051170;28;20415;-69
2023/03/29 06:43:46;;;;;;;8.90;3.90;;;9.50;1.00;;;;;;5051406;28;20496;-69
2023/03/29 06:46:12;;;;;;;10.40;4.10;;;11.00;1.00;;;;;;5050202;28;20411;-69
2023/03/29 06:48:38;;;;;;;9.63;3.30;;;9.20;1.00;;;;;;5051434;28;20399;-70
2023/03/29 06:51:06;;;;;;;8.93;3.30;;;9.40;1.00;;;;;;5050590;28;20389;-69
2023/03/29 06:53:32;;;;;;;11.05;4.03;;;9.50;1.00;;;;;;5051475;28;20464;-67
2023/03/29 06:55:58;;;;;;;7.53;2.92;;;9.70;1.00;;;;;;5050544;28;20373;-67
2023/03/29 06:58:26;;;;;;;7.90;3.40;;;9.80;1.00;;;;;;5051673;28;20727;-70
2023/03/29 07:00:52;;;;;;;7.43;2.90;;;10.00;1.00;;;;;;5050469;28;20501;-65
2023/03/29 07:03:22;;;;;;;8.63;3.30;;;10.20;1.00;;;;;;5051586;28;20381;-70
2023/03/29 07:05:50;;;;;;;8.53;3.37;;;10.30;1.00;;;;;;5050646;28;20477;-69
2023/03/29 07:08:17;;;;;;;9.35;4.05;;;10.40;1.00;;;;;;5051084;28;20381;-70
2023/03/29 07:10:51;;;;;;;7.65;2.33;;;10.50;1.00;;;;;;5050981;28;20388;-69
2023/03/29 07:13:16;;;;;;;6.25;1.98;;;10.40;1.00;;;;;;5050643;28;20388;-69
2023/03/29 07:15:43;;;;;;;7.40;2.43;;;10.60;1.00;;;;;;5050859;28;20394;-69
2023/03/29 07:18:09;;;;;;;10.40;3.40;;;10.50;1.00;;;;;;5049977;28;20385;-69
2023/03/29 07:20:37;;;;;;;17.58;3.70;;;10.60;1.00;;;;;;5050709;28;20390;-70
2023/03/29 07:23:04;;;;;;;9.75;3.00;;;10.70;1.00;;;;;;5049870;28;20983;-69
2023/03/29 07:25:31;;;;;;;14.73;3.55;;;10.80;1.00;;;;;;5050741;28;20397;-68
2023/03/29 07:27:57;;;;;;;8.48;2.38;;;10.80;1.00;;;;;;5049999;28;20870;-67
2023/03/29 07:30:26;;;;;;;10.07;2.73;;;11.00;1.00;;;;;;5050766;28;20409;-68
2023/03/29 07:32:52;;;;;;;8.68;3.13;;;10.90;1.00;;;;;;5050501;28;20408;-61
2023/03/29 07:35:18;;;;;;;9.43;2.50;;;11.00;1.00;;;;;;5050077;28;20420;-69
2023/03/29 07:37:45;;;;;;;9.45;2.42;;;10.90;1.00;;;;;;5050037;28;20470;-69
2023/03/29 07:40:17;;;;;;;7.57;2.30;;;10.80;1.00;;;;;;5050189;28;20485;-69
2023/03/29 07:42:44;;;;;;;6.93;1.85;;;10.90;1.00;;;;;;5050329;28;20859;-71
2023/03/29 07:45:12;;;;;;;10.05;2.38;;;10.90;1.00;;;;;;5049416;28;20405;-69
2023/03/29 07:47:41;;;;;;;9.98;1.90;;;11.00;1.00;;;;;;5050274;28;20451;-69
2023/03/29 07:50:08;;;;;;;6.50;1.80;;;11.00;1.00;;;;;;5049589;28;20409;-69
2023/03/29 07:52:35;;;;;;;5.97;1.50;;;11.10;1.00;;;;;;5049325;28;20505;-70
2023/03/29 07:55:01;;;;;;;7.40;1.75;;;11.40;1.00;;;;;;5049728;28;20443;-70
2023/03/29 07:57:27;;;;;;;6.00;1.50;;;11.50;1.00;;;;;;5050252;28;20385;-69
2023/03/29 07:59:53;;;;;;;5.85;1.60;;;11.60;1.00;;;;;;5049673;28;20385;-61
2023/03/29 08:02:19;;;;;;;9.93;1.90;;;11.80;1.00;;;;;;5031956;28;20393;-69
2023/03/29 08:04:45;;;;;;;6.32;1.60;;;11.90;1.00;;;;;;5049770;28;20412;-69
2023/03/29 08:07:12;;;;;;;6.80;1.50;;;11.90;1.00;;;;;;5049206;28;20373;-69
2023/03/29 08:09:38;;;;;;;6.30;1.30;;;12.10;1.00;;;;;;5032182;28;20866;-69
2023/03/29 08:12:04;;;;;;;5.97;1.57;;;12.10;1.00;;;;;;5049401;28;20385;-68
2023/03/29 08:14:30;;;;;;;8.43;1.73;;;12.00;1.00;;;;;;5049800;28;20389;-69
2023/03/29 08:16:55;;;;;;;6.40;1.50;;;12.10;1.00;;;;;;5049511;28;20439;-69
2023/03/29 08:19:21;;;;;;;6.00;1.30;;;12.20;1.00;;;;;;5050082;28;20715;-68
2023/03/29 08:21:47;;;;;;;5.68;1.30;;;12.50;1.00;;;;;;5050101;28;20377;-69
2023/03/29 08:24:13;;;;;;;6.75;1.63;;;12.50;1.00;;;;;;5049411;28;20460;-69
2023/03/29 08:26:39;;;;;;;6.10;1.60;;;12.60;1.00;;;;;;5049726;28;20819;-67
2023/03/29 08:29:05;;;;;;;6.30;1.48;;;12.60;99.90;;;;;;5048831;28;20542;-65
2023/03/29 08:31:32;;;;;;;6.32;1.95;;;12.60;99.90;;;;;;5050086;28;20417;-72
2023/03/29 08:33:58;;;;;;;5.83;1.60;;;12.80;99.90;;;;;;5048733;28;20392;-62
2023/03/29 08:36:23;;;;;;;6.40;2.00;;;12.90;99.90;;;;;;5047961;28;20732;-67
2023/03/29 08:38:50;;;;;;;7.90;1.90;;;13.10;99.90;;;;;;5031432;28;20386;-66
2023/03/29 08:41:31;;;;;;;7.85;2.00;;;13.10;99.90;;;;;;5048704;28;20420;-69
2023/03/29 08:44:06;;;;;;;6.03;1.60;;;12.90;99.90;;;;;;5048380;28;20952;-68
2023/03/29 08:47:06;;;;;;;6.40;1.57;;;12.90;99.90;;;;;;5050186;28;20381;-62
2023/03/29 08:49:35;;;;;;;10.13;1.70;;;12.80;99.90;;;;;;5049662;28;20927;-70
2023/03/29 08:52:05;;;;;;;8.20;2.10;;;12.90;99.90;;;;;;5048788;28;20396;-70
2023/03/29 08:54:43;;;;;;;6.63;1.70;;;13.00;99.90;;;;;;5049872;28;20921;-69
2023/03/29 08:57:19;;;;;;;6.10;1.87;;;13.00;99.90;;;;;;5048396;28;21176;-70
2023/03/29 08:59:50;;;;;;;6.97;1.90;;;13.30;99.90;;;;;;5049637;28;20405;-69
2023/03/29 09:02:23;;;;;;;6.47;1.80;;;13.50;99.90;;;;;;5048640;28;20501;-69
2023/03/29 09:04:51;;;;;;;6.07;1.98;;;13.50;99.90;;;;;;5050535;28;20502;-69
2023/03/29 09:07:17;;;;;;;8.23;2.30;;;13.60;99.90;;;;;;5052529;28;20397;-69
2023/03/29 09:09:43;;;;;;;6.93;2.13;;;13.70;99.90;;;;;;5053858;28;20389;-69
2023/03/29 09:12:35;;;;;;;7.20;1.93;;;13.90;99.90;;;;;;5052370;28;20920;-71
2023/03/29 09:15:20;;;;;;;9.70;1.87;;;14.10;99.90;;;;;;5051956;28;20903;-69
2023/03/29 09:18:12;;;;;;;9.70;2.67;;;14.20;99.90;;;;;;5052986;28;20381;-70
2023/03/29 09:21:15;;;;;;;6.43;2.10;;;14.20;99.90;;;;;;5053267;28;20503;-68
2023/03/29 09:24:09;;;;;;;8.00;2.10;;;14.50;99.90;;;;;;5039325;28;20515;-69
2023/03/29 09:26:47;;;;;;;9.00;2.30;;;15.00;99.90;;;;;;5052769;28;20476;-65
2023/03/29 09:29:43;;;;;;;9.70;2.55;;;15.20;99.90;;;;;;5052230;28;20997;-69
2023/03/29 09:32:42;;;;;;;7.20;2.10;;;15.20;99.90;;;;;;5052346;28;20451;-69
2023/03/29 09:35:17;;;;;;;7.32;1.92;;;15.30;99.90;;;;;;5052104;28;20386;-69
2023/03/29 09:37:43;;;;;;;6.53;2.08;;;15.30;99.90;;;;;;5052396;28;20389;-69
2023/03/29 09:40:13;;;;;;;10.40;2.40;;;15.30;99.90;;;;;;5051757;28;20374;-68
2023/03/29 09:42:40;;;;;;;7.73;2.10;;;15.40;99.90;;;;;;5052779;28;20382;-69
2023/03/29 09:45:09;;;;;;;7.93;2.50;;;15.90;99.90;;;;;;5052574;28;20401;-69
2023/03/29 09:47:41;;;;;;;8.38;1.83;;;16.10;99.90;;;;;;5052565;28;20412;-69
2023/03/29 09:50:28;;;;;;;7.50;2.30;;;16.00;99.90;;;;;;5052212;28;20412;-68
2023/03/29 09:52:54;;;;;;;6.70;2.10;;;16.00;99.90;;;;;;5052151;28;20389;-62
2023/03/29 09:55:25;;;;;;;9.23;2.20;;;15.80;99.90;;;;;;5051865;28;20385;-69
2023/03/29 09:57:51;;;;;;;8.65;2.00;;;15.70;99.90;;;;;;5052446;28;20442;-69
2023/03/29 10:00:17;;;;;;;9.80;2.42;;;16.00;99.90;;;;;;5033548;28;20405;-67
2023/03/29 10:02:53;;;;;;;8.63;2.20;;;16.40;99.90;;;;;;5051739;28;20458;-69
2023/03/29 10:05:20;;;;;;;8.20;2.40;;;16.70;99.90;;;;;;5033695;28;20416;-69
2023/03/29 10:07:50;;;;;;;7.20;1.90;;;16.80;99.90;;;;;;5052164;28;20386;-69
2023/03/29 10:10:32;;;;;;;7.93;2.30;;;16.80;99.90;;;;;;5051630;28;20381;-69
2023/03/29 10:13:09;;;;;;;9.13;2.30;;;16.80;99.90;;;;;;5033578;28;20911;-69
2023/03/29 10:15:35;;;;;;;6.53;1.98;;;17.10;99.90;;;;;;5031411;28;20395;-69
2023/03/29 10:18:08;;;;;;;8.45;2.40;;;17.40;99.90;;;;;;5031105;28;20632;-69
2023/03/29 10:20:35;;;;;;;8.75;2.10;;;17.90;99.90;;;;;;5031978;28;20422;-69
2023/03/29 10:23:01;;;;;;;7.78;2.38;;;18.00;99.90;;;;;;5030971;28;20436;-69
2023/03/29 10:25:32;;;;;;;6.10;2.10;;;17.80;99.90;;;;;;5031603;28;20414;-69
2023/03/29 10:28:06;;;;;;;6.85;2.13;;;17.60;99.90;;;;;;5031485;28;20891;-68
2023/03/29 10:30:36;;;;;;;8.90;2.60;;;17.50;99.90;;;;;;5032044;28;20391;-69
2023/03/29 10:33:02;;;;;;;6.63;2.27;;;17.50;99.90;;;;;;5031124;28;20379;-69
2023/03/29 10:35:32;;;;;;;7.40;1.80;;;17.50;99.90;;;;;;5014350;28;20474;-69
2023/03/29 10:38:02;;;;;;;8.50;2.00;;;17.60;99.90;;;;;;5031237;28;20744;-66
2023/03/29 10:40:40;;;;;;;9.03;2.30;;;17.70;99.90;;;;;;5031166;28;21176;-68
2023/03/29 10:43:24;;;;;;;7.43;2.80;;;17.80;99.90;;;;;;5030987;28;20449;-69
2023/03/29 10:45:53;;;;;;;14.70;2.50;;;17.70;99.90;;;;;;5031475;28;20742;-68
2023/03/29 10:48:24;;;;;;;7.75;2.10;;;17.40;99.90;;;;;;5013323;28;20387;-69
2023/03/29 10:50:51;;;;;;;7.10;1.90;;;17.40;99.90;;;;;;5031734;28;20375;-69
2023/03/29 10:53:26;;;;;;;5.85;1.92;;;17.80;99.90;;;;;;5030838;28;20486;-69
2023/03/29 10:56:07;;;;;;;6.30;2.60;;;18.90;99.90;;;;;;5031245;28;20391;-68
2023/03/29 10:59:08;;;;;;;9.15;4.03;;;20.50;99.90;;;;;;5030961;28;20395;-64
2023/03/29 11:01:48;;;;;;;7.75;6.30;;;21.60;99.90;;;;;;5031221;28;20399;-66
2023/03/29 11:04:21;;;;;;;7.70;5.70;;;22.10;99.90;;;;;;5030472;28;20797;-67
2023/03/29 11:07:14;;;;;;;7.47;5.40;;;21.80;99.90;;;;;;5031051;28;20395;-68
2023/03/29 11:09:52;;;;;;;8.23;6.43;;;21.00;99.90;;;;;;5031024;28;20407;-67
2023/03/29 11:12:36;;;;;;;7.88;6.40;;;21.00;99.90;;;;;;5030340;28;20473;-68
2023/03/29 11:15:29;;;;;;;7.68;5.80;;;20.80;99.90;;;;;;5047343;28;20393;-67
2023/03/29 11:18:22;;;;;;;7.47;5.70;;;20.50;99.90;;;;;;5050434;28;20405;-62
2023/03/29 11:21:15;;;;;;;7.90;5.70;;;20.60;99.90;;;;;;5007756;28;21000;-68
2023/03/29 11:24:07;;;;;;;7.68;6.40;;;21.40;99.90;;;;;;5050457;28;20382;-65
2023/03/29 11:26:35;;;;;;;7.38;4.75;;;22.80;99.90;;;;;;5050148;28;20859;-69
2023/03/29 11:29:25;;;;;;;7.03;3.97;;;23.90;99.90;;;;;;5049244;28;20436;-68
2023/03/29 11:32:14;;;;;;;6.82;3.08;;;23.90;99.90;;;;;;5050535;28;20432;-64
2023/03/29 11:35:23;;;;;;;7.53;4.30;;;22.80;99.90;;;;;;5050229;28;20503;-68
2023/03/29 11:37:52;;;;;;;10.50;9.40;;;21.80;99.90;;;;;;5035112;28;20489;-66
2023/03/29 11:40:46;;;;;;;7.20;6.20;;;21.70;99.90;;;;;;5049742;28;20882;-67
2023/03/29 11:43:34;;;;;;;7.80;5.90;;;21.20;99.90;;;;;;5049071;28;20397;-68
2023/03/29 11:46:23;;;;;;;8.23;6.70;;;21.20;99.90;;;;;;5049699;28;20385;-67
2023/03/29 11:49:04;;;;;;;8.38;4.93;;;20.60;99.90;;;;;;5050125;28;20417;-67
2023/03/29 11:51:45;;;;;;;8.20;4.80;;;20.10;99.90;;;;;;5049924;28;20384;-67
2023/03/29 11:54:27;;;;;;;8.13;5.00;;;20.00;99.90;;;;;;5049460;28;20473;-68
2023/03/29 11:57:10;;;;;;;7.03;4.70;;;20.10;99.90;;;;;;5049915;28;20433;-68
2023/03/29 11:59:54;;;;;;;8.83;5.20;;;20.30;99.90;;;;;;5049745;28;20743;-67
2023/03/29 12:02:30;;;;;;;7.65;5.00;;;20.60;99.90;;;;;;5049449;28;20394;-67
2023/03/29 12:05:00;;;;;;;8.65;5.20;;;20.80;99.90;;;;;;5049497;28;20491;-61
2023/03/29 12:07:29;;;;;;;8.38;4.90;;;20.50;99.90;;;;;;5049810;28;20743;-67
2023/03/29 12:10:01;;;;;;;8.50;5.00;;;20.20;99.90;;;;;;5049909;28;20381;-63
2023/03/29 12:12:38;;;;;;;8.55;4.80;;;19.80;99.90;;;;;;5049529;28;20373;-67
2023/03/29 12:15:10;;;;;;;9.20;5.00;;;20.00;99.90;;;;;;5048719;28;20391;-67
2023/03/29 12:17:50;;;;;;;7.63;4.60;;;20.10;99.90;;;;;;5050275;28;20822;-65
2023/03/29 12:20:25;;;;;;;6.82;4.70;;;20.30;99.90;;;;;;5048891;28;20378;-67
2023/03/29 12:22:52;;;;;;;8.30;5.50;;;20.10;99.90;;;;;;5049984;28;20515;-66
2023/03/29 12:25:27;;;;;;;7.50;5.47;;;19.90;99.90;;;;;;5048974;28;20405;-67
2023/03/29 12:28:06;;;;;;;8.25;5.20;;;20.00;99.90;;;;;;5049531;28;20492;-67
2023/03/29 12:30:45;;;;;;;7.45;4.80;;;20.30;99.90;;;;;;5049728;28;20410;-68
2023/03/29 12:33:50;;;;;;;8.30;4.47;;;20.20;99.90;;;;;;5048762;28;20405;-68
2023/03/29 12:37:00;;;;;;;7.93;4.68;;;19.70;99.90;;;;;;5048861;28;20385;-65
2023/03/29 12:39:29;;;;;;;6.30;4.10;;;20.20;99.90;;;;;;5038422;28;20920;-67
2023/03/29 12:42:16;;;;;;;7.25;4.90;;;20.60;99.90;;;;;;5053861;28;20381;-61
2023/03/29 12:44:58;;;;;;;7.27;4.90;;;20.90;99.90;;;;;;5053736;28;20409;-65
2023/03/29 12:47:30;;;;;;;6.93;4.82;;;21.40;99.90;;;;;;5053456;28;20401;-66
2023/03/29 12:49:58;;;;;;;9.05;5.68;;;21.70;99.90;;;;;;5053063;28;20377;-61
2023/03/29 12:52:41;;;;;;;9.68;4.90;;;21.50;99.90;;;;;;5053464;28;20451;-64
2023/03/29 12:55:28;;;;;;;7.80;5.40;;;21.10;99.90;;;;;;5052941;28;20389;-68
2023/03/29 12:58:06;;;;;;;8.10;5.10;;;20.50;99.90;;;;;;5053675;28;20419;-68
2023/03/29 13:00:40;;;;;;;7.88;4.97;;;19.90;99.90;;;;;;5053367;28;20855;-68
2023/03/29 13:03:38;;;;;;;6.97;4.70;;;19.50;99.90;;;;;;5052777;28;20378;-66
2023/03/29 13:06:09;;;;;;;6.80;4.60;;;19.60;99.90;;;;;;5050184;28;20444;-67
2023/03/29 13:08:38;;;;;;;7.93;4.53;;;19.70;99.90;;;;;;5053502;28;20876;-67
2023/03/29 13:11:05;;;;;;;6.43;4.50;;;19.50;99.90;;;;;;5052395;28;20378;-66
2023/03/29 13:13:36;;;;;;;7.20;4.30;;;19.00;99.90;;;;;;5052853;28;20378;-68
2023/03/29 13:16:29;;;;;;;12.30;4.10;;;18.80;99.90;;;;;;5052277;28;20397;-68
2023/03/29 13:19:13;;;;;;;6.38;3.88;;;18.30;99.90;;;;;;5049036;28;20397;-62